CDT,Max TemperatureF,Mean TemperatureF,Min TemperatureF,Max Dew PointF,MeanDew PointF,Min DewpointF,Max Humidity, Mean Humidity, Min Humidity, Max Sea Level PressureIn, Mean Sea Level PressureIn, Min Sea Level PressureIn, Max VisibilityMiles, Mean VisibilityMiles, Min VisibilityMiles, Max Wind SpeedMPH, Mean Wind SpeedMPH, Max Gust SpeedMPH,PrecipitationIn, CloudCover, Events, WindDirDegrees
2013-3-1,33,26,18,20,16,14,82,63,44,30.35,30.28,30.22,10,10,7,21,14,26,0.00,7,Snow,359
2013-3-2,42,27,12,22,15,8,86,63,34,30.35,30.25,30.07,10,10,7,12,4,,0.00,1,,213
2013-3-3,52,40,28,31,26,22,80,63,41,30.07,29.84,29.67,10,10,10,16,8,21,0.00,1,,145
2013-3-4,43,38,33,32,29,25,91,71,57,30.05,29.77,29.61,10,10,5,21,10,28,0.00,4,Rain,9
2013-3-5,35,28,22,18,15,12,75,55,39,30.39,30.23,30.06,10,10,10,34,20,44,0.00,4,,326
2013-3-6,42,28,13,21,16,9,85,63,31,30.42,30.33,30.20,10,10,10,13,6,16,0.00,2,,109
2013-3-7,58,42,25,27,21,16,78,54,20,30.22,30.14,30.05,10,10,7,18,10,25,0.00,0,,128
2013-3-8,62,47,32,48,33,26,85,60,36,30.14,30.02,29.88,10,10,7,22,9,30,0.00,3,Rain,129
2013-3-9,60,48,35,53,46,35,96,80,69,29.88,29.67,29.53,10,9,4,25,14,33,0.05,6,Rain-Thunderstorm,156
2013-3-10,35,28,22,34,25,19,96,88,82,29.98,29.85,29.68,10,5,0,33,23,43,0.02,8,Rain-Snow,346
2013-3-11,36,25,14,25,17,10,89,72,44,30.01,29.94,29.90,10,10,3,21,12,26,0.00,3,Snow,301
2013-3-12,40,32,25,25,22,18,86,67,43,30.34,30.19,30.03,10,10,10,29,10,36,0.01,1,,309
2013-3-13,48,33,18,24,17,12,90,59,24,30.45,30.35,30.22,10,10,10,13,5,,0.00,1,,196
2013-3-14,66,49,32,34,28,19,76,50,24,30.22,30.11,30.07,10,10,10,15,8,18,0.00,0,,98
2013-3-15,75,55,35,43,34,29,82,55,19,30.07,29.83,29.68,10,10,7,18,5,26,0.00,0,,34
2013-3-16,45,38,32,40,28,23,87,74,63,30.15,30.04,29.82,10,9,4,20,14,26,0.00,7,,19
2013-3-17,49,38,27,32,25,21,87,65,38,30.12,29.92,29.72,10,10,4,16,11,21,0.02,6,Rain,107
2013-3-18,47,36,25,35,22,8,92,57,22,30.07,29.90,29.74,10,8,2,30,12,38,0.06,3,Rain,315
2013-3-19,48,38,29,37,21,0,73,53,18,30.31,30.15,30.06,10,10,7,22,5,23,0.00,6,Rain,270
2013-3-20,41,30,18,20,9,3,72,46,21,30.41,30.29,30.08,10,10,10,20,11,25,0.00,1,,350
2013-3-21,36,30,25,21,15,7,72,52,42,30.07,29.96,29.87,10,10,4,17,8,23,0.00,7,Snow,110
2013-3-22,34,31,28,29,24,14,87,75,47,30.02,29.97,29.94,10,8,2,10,6,,0.01,8,Snow,96
2013-3-23,36,32,29,30,25,22,90,75,58,30.07,30.02,29.99,10,7,1,20,8,26,0.00,8,Snow,40
2013-3-24,31,27,23,27,19,14,88,70,52,30.12,30.06,30.01,10,8,2,30,20,36,0.01,6,Snow,339
2013-3-25,31,27,23,23,20,16,84,71,54,30.35,30.23,30.11,10,9,3,29,17,33,0.00,7,Snow,330
2013-3-26,44,29,14,22,15,10,84,56,25,30.39,30.31,30.22,10,10,10,12,6,,0.00,1,,243
2013-3-27,57,44,30,25,22,18,68,48,24,30.24,30.18,30.12,10,10,10,15,8,23,0.00,1,,128
2013-3-28,63,45,27,32,25,20,90,51,19,30.23,30.18,30.12,10,10,5,10,4,,0.00,1,,82
2013-3-29,71,54,36,38,30,20,85,43,15,30.20,30.13,30.03,10,10,7,15,6,23,0.00,1,Thunderstorm,132
2013-3-30,69,60,50,52,44,30,90,67,29,30.06,29.96,29.90,10,9,2,20,10,24,0.60,6,Rain-Thunderstorm,26
2013-3-31,60,50,39,46,32,20,85,52,21,30.10,30.00,29.93,10,10,7,24,10,36,0.00,3,Rain,333